sensor_id;sensor_type;location;lat;lon;timestamp;P1;durP1;ratioP1;P2;durP2;ratioP2
57848;SDS011;68645;44.762;21.516;2023-11-19T00:02:19;17.67;;;11.43;;
57848;SDS011;68645;44.762;21.516;2023-11-19T00:04:45;22.33;;;14.10;;
57848;SDS011;68645;44.762;21.516;2023-11-19T00:07:11;16.92;;;10.80;;
57848;SDS011;68645;44.762;21.516;2023-11-19T00:09:39;19.98;;;12.70;;
57848;SDS011;68645;44.762;21.516;2023-11-19T00:12:05;23.65;;;15.25;;
57848;SDS011;68645;44.762;21.516;2023-11-19T00:14:32;20.08;;;11.68;;
57848;SDS011;68645;44.762;21.516;2023-11-19T00:16:58;19.55;;;11.90;;
57848;SDS011;68645;44.762;21.516;2023-11-19T00:19:24;29.38;;;20.73;;
57848;SDS011;68645;44.762;21.516;2023-11-19T00:21:51;21.60;;;13.00;;
57848;SDS011;68645;44.762;21.516;2023-11-19T00:24:17;23.85;;;14.57;;
57848;SDS011;68645;44.762;21.516;2023-11-19T00:26:44;22.38;;;13.75;;
57848;SDS011;68645;44.762;21.516;2023-11-19T00:29:10;19.02;;;12.00;;
57848;SDS011;68645;44.762;21.516;2023-11-19T00:31:37;22.75;;;12.93;;
57848;SDS011;68645;44.762;21.516;2023-11-19T00:34:03;22.33;;;12.75;;
57848;SDS011;68645;44.762;21.516;2023-11-19T00:36:31;19.15;;;12.40;;
57848;SDS011;68645;44.762;21.516;2023-11-19T00:38:57;26.83;;;16.45;;
57848;SDS011;68645;44.762;21.516;2023-11-19T00:41:23;20.60;;;12.70;;
57848;SDS011;68645;44.762;21.516;2023-11-19T00:43:50;16.40;;;10.55;;
57848;SDS011;68645;44.762;21.516;2023-11-19T00:46:17;23.45;;;14.25;;
57848;SDS011;68645;44.762;21.516;2023-11-19T00:48:43;16.52;;;10.60;;
57848;SDS011;68645;44.762;21.516;2023-11-19T00:51:11;18.65;;;11.80;;
57848;SDS011;68645;44.762;21.516;2023-11-19T00:53:37;19.08;;;11.98;;
57848;SDS011;68645;44.762;21.516;2023-11-19T00:56:04;14.70;;;9.93;;
57848;SDS011;68645;44.762;21.516;2023-11-19T00:58:30;18.77;;;11.70;;
57848;SDS011;68645;44.762;21.516;2023-11-19T01:00:57;14.05;;;8.93;;
57848;SDS011;68645;44.762;21.516;2023-11-19T01:03:23;23.90;;;14.07;;
57848;SDS011;68645;44.762;21.516;2023-11-19T01:05:49;22.02;;;13.23;;
57848;SDS011;68645;44.762;21.516;2023-11-19T01:08:17;18.60;;;12.18;;
57848;SDS011;68645;44.762;21.516;2023-11-19T01:10:44;15.15;;;10.00;;
57848;SDS011;68645;44.762;21.516;2023-11-19T01:13:10;19.98;;;11.98;;
57848;SDS011;68645;44.762;21.516;2023-11-19T01:15:36;13.55;;;9.93;;
57848;SDS011;68645;44.762;21.516;2023-11-19T01:18:02;18.55;;;13.73;;
57848;SDS011;68645;44.762;21.516;2023-11-19T01:20:30;17.85;;;12.65;;
57848;SDS011;68645;44.762;21.516;2023-11-19T01:22:56;17.17;;;10.90;;
57848;SDS011;68645;44.762;21.516;2023-11-19T01:25:22;19.23;;;10.55;;
57848;SDS011;68645;44.762;21.516;2023-11-19T01:27:48;17.63;;;11.07;;
57848;SDS011;68645;44.762;21.516;2023-11-19T01:30:15;31.33;;;17.55;;
57848;SDS011;68645;44.762;21.516;2023-11-19T01:32:41;34.50;;;19.45;;
57848;SDS011;68645;44.762;21.516;2023-11-19T01:35:07;41.55;;;19.30;;
57848;SDS011;68645;44.762;21.516;2023-11-19T01:37:34;27.70;;;15.60;;
57848;SDS011;68645;44.762;21.516;2023-11-19T01:40:01;22.83;;;13.20;;
57848;SDS011;68645;44.762;21.516;2023-11-19T01:42:29;32.78;;;16.67;;
57848;SDS011;68645;44.762;21.516;2023-11-19T01:44:58;35.78;;;20.15;;
57848;SDS011;68645;44.762;21.516;2023-11-19T01:47:28;46.88;;;25.67;;
57848;SDS011;68645;44.762;21.516;2023-11-19T01:49:54;38.08;;;18.80;;
57848;SDS011;68645;44.762;21.516;2023-11-19T01:52:21;34.60;;;19.10;;
57848;SDS011;68645;44.762;21.516;2023-11-19T01:54:48;25.90;;;15.63;;
57848;SDS011;68645;44.762;21.516;2023-11-19T01:57:14;43.63;;;25.13;;
57848;SDS011;68645;44.762;21.516;2023-11-19T01:59:40;32.78;;;17.05;;
57848;SDS011;68645;44.762;21.516;2023-11-19T02:02:07;24.92;;;14.18;;
57848;SDS011;68645;44.762;21.516;2023-11-19T02:04:33;25.20;;;14.93;;
57848;SDS011;68645;44.762;21.516;2023-11-19T02:07:00;40.22;;;22.83;;
57848;SDS011;68645;44.762;21.516;2023-11-19T02:09:26;25.58;;;14.95;;
57848;SDS011;68645;44.762;21.516;2023-11-19T02:11:53;34.13;;;20.40;;
57848;SDS011;68645;44.762;21.516;2023-11-19T02:14:19;29.63;;;16.15;;
57848;SDS011;68645;44.762;21.516;2023-11-19T02:16:48;61.67;;;32.92;;
57848;SDS011;68645;44.762;21.516;2023-11-19T02:19:14;38.20;;;22.20;;
57848;SDS011;68645;44.762;21.516;2023-11-19T02:21:40;32.15;;;18.15;;
57848;SDS011;68645;44.762;21.516;2023-11-19T02:24:07;44.20;;;24.73;;
57848;SDS011;68645;44.762;21.516;2023-11-19T02:26:49;34.60;;;20.63;;
57848;SDS011;68645;44.762;21.516;2023-11-19T02:29:18;24.05;;;14.00;;
57848;SDS011;68645;44.762;21.516;2023-11-19T02:31:44;30.20;;;19.25;;
57848;SDS011;68645;44.762;21.516;2023-11-19T02:34:11;35.17;;;22.13;;
57848;SDS011;68645;44.762;21.516;2023-11-19T02:36:38;44.58;;;26.02;;
57848;SDS011;68645;44.762;21.516;2023-11-19T02:39:06;28.52;;;16.55;;
57848;SDS011;68645;44.762;21.516;2023-11-19T02:41:35;35.38;;;23.92;;
57848;SDS011;68645;44.762;21.516;2023-11-19T02:44:04;32.88;;;20.33;;
57848;SDS011;68645;44.762;21.516;2023-11-19T02:46:31;29.80;;;17.70;;
57848;SDS011;68645;44.762;21.516;2023-11-19T02:48:57;45.67;;;25.88;;
57848;SDS011;68645;44.762;21.516;2023-11-19T02:51:23;33.40;;;16.38;;
57848;SDS011;68645;44.762;21.516;2023-11-19T02:53:49;22.73;;;14.13;;
57848;SDS011;68645;44.762;21.516;2023-11-19T02:56:15;35.22;;;18.50;;
57848;SDS011;68645;44.762;21.516;2023-11-19T02:58:50;35.10;;;17.98;;
57848;SDS011;68645;44.762;21.516;2023-11-19T03:01:26;19.63;;;11.35;;
57848;SDS011;68645;44.762;21.516;2023-11-19T03:03:56;38.65;;;20.42;;
57848;SDS011;68645;44.762;21.516;2023-11-19T03:06:23;38.60;;;19.15;;
57848;SDS011;68645;44.762;21.516;2023-11-19T03:08:49;31.13;;;17.38;;
57848;SDS011;68645;44.762;21.516;2023-11-19T03:11:15;30.67;;;17.52;;
57848;SDS011;68645;44.762;21.516;2023-11-19T03:13:42;26.30;;;14.77;;
57848;SDS011;68645;44.762;21.516;2023-11-19T03:16:08;26.45;;;13.63;;
57848;SDS011;68645;44.762;21.516;2023-11-19T03:18:34;28.48;;;15.55;;
57848;SDS011;68645;44.762;21.516;2023-11-19T03:21:00;27.80;;;17.27;;
57848;SDS011;68645;44.762;21.516;2023-11-19T03:23:28;60.22;;;25.42;;
57848;SDS011;68645;44.762;21.516;2023-11-19T03:25:54;35.80;;;17.70;;
57848;SDS011;68645;44.762;21.516;2023-11-19T03:28:22;39.08;;;19.08;;
57848;SDS011;68645;44.762;21.516;2023-11-19T03:30:48;20.75;;;12.18;;
57848;SDS011;68645;44.762;21.516;2023-11-19T03:33:14;29.70;;;12.68;;
57848;SDS011;68645;44.762;21.516;2023-11-19T03:35:40;32.55;;;15.60;;
57848;SDS011;68645;44.762;21.516;2023-11-19T03:38:06;26.40;;;12.82;;
57848;SDS011;68645;44.762;21.516;2023-11-19T03:40:33;28.08;;;14.93;;
57848;SDS011;68645;44.762;21.516;2023-11-19T03:42:59;33.50;;;15.13;;
57848;SDS011;68645;44.762;21.516;2023-11-19T03:45:25;27.80;;;13.70;;
57848;SDS011;68645;44.762;21.516;2023-11-19T03:47:51;33.20;;;17.33;;
57848;SDS011;68645;44.762;21.516;2023-11-19T03:50:17;29.77;;;16.00;;
57848;SDS011;68645;44.762;21.516;2023-11-19T03:52:45;23.90;;;11.98;;
57848;SDS011;68645;44.762;21.516;2023-11-19T03:55:11;22.90;;;12.80;;
57848;SDS011;68645;44.762;21.516;2023-11-19T03:57:38;27.13;;;13.60;;
57848;SDS011;68645;44.762;21.516;2023-11-19T04:00:04;30.90;;;16.67;;
57848;SDS011;68645;44.762;21.516;2023-11-19T04:02:39;26.77;;;15.55;;
57848;SDS011;68645;44.762;21.516;2023-11-19T04:05:05;22.20;;;12.98;;
57848;SDS011;68645;44.762;21.516;2023-11-19T04:07:32;26.10;;;15.18;;
57848;SDS011;68645;44.762;21.516;2023-11-19T04:10:01;20.10;;;11.98;;
57848;SDS011;68645;44.762;21.516;2023-11-19T04:12:27;26.30;;;14.05;;
57848;SDS011;68645;44.762;21.516;2023-11-19T04:14:53;26.13;;;15.40;;
57848;SDS011;68645;44.762;21.516;2023-11-19T04:17:19;34.05;;;17.35;;
57848;SDS011;68645;44.762;21.516;2023-11-19T04:19:45;21.15;;;11.43;;
57848;SDS011;68645;44.762;21.516;2023-11-19T04:22:11;31.88;;;17.50;;
57848;SDS011;68645;44.762;21.516;2023-11-19T04:24:37;27.33;;;15.27;;
57848;SDS011;68645;44.762;21.516;2023-11-19T04:27:04;27.23;;;14.80;;
57848;SDS011;68645;44.762;21.516;2023-11-19T04:29:31;34.05;;;17.17;;
57848;SDS011;68645;44.762;21.516;2023-11-19T04:31:57;24.48;;;14.93;;
57848;SDS011;68645;44.762;21.516;2023-11-19T04:34:26;30.48;;;16.85;;
57848;SDS011;68645;44.762;21.516;2023-11-19T04:36:52;28.92;;;16.77;;
57848;SDS011;68645;44.762;21.516;2023-11-19T04:39:19;26.95;;;14.95;;
57848;SDS011;68645;44.762;21.516;2023-11-19T04:41:46;24.70;;;15.07;;
57848;SDS011;68645;44.762;21.516;2023-11-19T04:44:18;26.05;;;13.45;;
57848;SDS011;68645;44.762;21.516;2023-11-19T04:46:44;36.05;;;17.23;;
57848;SDS011;68645;44.762;21.516;2023-11-19T04:49:11;28.77;;;13.57;;
57848;SDS011;68645;44.762;21.516;2023-11-19T04:51:38;32.72;;;16.98;;
57848;SDS011;68645;44.762;21.516;2023-11-19T04:54:04;23.67;;;12.55;;
57848;SDS011;68645;44.762;21.516;2023-11-19T04:56:31;25.42;;;15.32;;
57848;SDS011;68645;44.762;21.516;2023-11-19T04:58:58;23.85;;;11.45;;
57848;SDS011;68645;44.762;21.516;2023-11-19T05:01:24;66.45;;;36.42;;
57848;SDS011;68645;44.762;21.516;2023-11-19T05:03:50;37.92;;;21.65;;
57848;SDS011;68645;44.762;21.516;2023-11-19T05:06:16;58.15;;;32.22;;
57848;SDS011;68645;44.762;21.516;2023-11-19T05:08:42;46.00;;;23.02;;
57848;SDS011;68645;44.762;21.516;2023-11-19T05:11:08;65.35;;;29.98;;
57848;SDS011;68645;44.762;21.516;2023-11-19T05:13:37;36.47;;;16.05;;
57848;SDS011;68645;44.762;21.516;2023-11-19T05:16:04;58.97;;;25.80;;
57848;SDS011;68645;44.762;21.516;2023-11-19T05:18:30;71.65;;;28.38;;
57848;SDS011;68645;44.762;21.516;2023-11-19T05:20:56;31.10;;;15.73;;
57848;SDS011;68645;44.762;21.516;2023-11-19T05:23:22;101.47;;;45.17;;
57848;SDS011;68645;44.762;21.516;2023-11-19T05:25:48;53.60;;;26.23;;
57848;SDS011;68645;44.762;21.516;2023-11-19T05:28:14;66.07;;;29.77;;
57848;SDS011;68645;44.762;21.516;2023-11-19T05:30:41;59.95;;;24.00;;
57848;SDS011;68645;44.762;21.516;2023-11-19T05:33:07;36.47;;;18.52;;
57848;SDS011;68645;44.762;21.516;2023-11-19T05:35:34;59.85;;;28.55;;
57848;SDS011;68645;44.762;21.516;2023-11-19T05:38:01;119.95;;;48.13;;
57848;SDS011;68645;44.762;21.516;2023-11-19T05:40:27;86.35;;;36.25;;
57848;SDS011;68645;44.762;21.516;2023-11-19T05:42:53;138.95;;;50.53;;
57848;SDS011;68645;44.762;21.516;2023-11-19T05:45:19;216.43;;;69.53;;
57848;SDS011;68645;44.762;21.516;2023-11-19T05:47:46;111.80;;;44.92;;
57848;SDS011;68645;44.762;21.516;2023-11-19T05:50:12;115.93;;;46.55;;
57848;SDS011;68645;44.762;21.516;2023-11-19T05:52:38;61.67;;;24.90;;
57848;SDS011;68645;44.762;21.516;2023-11-19T05:55:04;129.25;;;60.60;;
57848;SDS011;68645;44.762;21.516;2023-11-19T05:57:34;125.47;;;60.95;;
57848;SDS011;68645;44.762;21.516;2023-11-19T06:00:01;83.32;;;35.30;;
57848;SDS011;68645;44.762;21.516;2023-11-19T06:02:28;54.15;;;27.67;;
57848;SDS011;68645;44.762;21.516;2023-11-19T06:04:54;89.18;;;40.50;;
57848;SDS011;68645;44.762;21.516;2023-11-19T06:07:20;64.05;;;35.78;;
57848;SDS011;68645;44.762;21.516;2023-11-19T06:09:46;101.15;;;45.70;;
57848;SDS011;68645;44.762;21.516;2023-11-19T06:12:13;41.92;;;20.85;;
57848;SDS011;68645;44.762;21.516;2023-11-19T06:14:39;103.03;;;57.45;;
57848;SDS011;68645;44.762;21.516;2023-11-19T06:17:06;103.78;;;56.72;;
57848;SDS011;68645;44.762;21.516;2023-11-19T06:19:33;62.88;;;36.17;;
57848;SDS011;68645;44.762;21.516;2023-11-19T06:21:59;51.55;;;29.60;;
57848;SDS011;68645;44.762;21.516;2023-11-19T06:24:25;66.22;;;38.30;;
57848;SDS011;68645;44.762;21.516;2023-11-19T06:26:52;62.95;;;39.78;;
57848;SDS011;68645;44.762;21.516;2023-11-19T06:29:18;48.97;;;29.50;;
57848;SDS011;68645;44.762;21.516;2023-11-19T06:31:45;97.68;;;51.97;;
57848;SDS011;68645;44.762;21.516;2023-11-19T06:34:13;71.25;;;37.38;;
57848;SDS011;68645;44.762;21.516;2023-11-19T06:36:40;83.72;;;37.97;;
57848;SDS011;68645;44.762;21.516;2023-11-19T06:39:06;137.52;;;63.42;;
57848;SDS011;68645;44.762;21.516;2023-11-19T06:41:33;83.82;;;46.72;;
57848;SDS011;68645;44.762;21.516;2023-11-19T06:43:59;50.30;;;30.27;;
57848;SDS011;68645;44.762;21.516;2023-11-19T06:46:25;66.63;;;41.58;;
57848;SDS011;68645;44.762;21.516;2023-11-19T06:48:52;67.95;;;36.83;;
57848;SDS011;68645;44.762;21.516;2023-11-19T06:51:18;84.75;;;46.30;;
57848;SDS011;68645;44.762;21.516;2023-11-19T06:53:44;99.68;;;48.97;;
57848;SDS011;68645;44.762;21.516;2023-11-19T06:56:20;57.85;;;29.65;;
57848;SDS011;68645;44.762;21.516;2023-11-19T06:58:46;140.68;;;82.00;;
57848;SDS011;68645;44.762;21.516;2023-11-19T07:01:13;66.60;;;39.75;;
57848;SDS011;68645;44.762;21.516;2023-11-19T07:03:40;64.95;;;36.00;;
57848;SDS011;68645;44.762;21.516;2023-11-19T07:06:06;44.53;;;28.77;;
57848;SDS011;68645;44.762;21.516;2023-11-19T07:08:33;78.05;;;48.50;;
57848;SDS011;68645;44.762;21.516;2023-11-19T07:10:59;84.70;;;52.80;;
57848;SDS011;68645;44.762;21.516;2023-11-19T07:13:25;53.65;;;33.80;;
57848;SDS011;68645;44.762;21.516;2023-11-19T07:15:53;89.55;;;56.70;;
57848;SDS011;68645;44.762;21.516;2023-11-19T07:18:19;52.42;;;35.25;;
57848;SDS011;68645;44.762;21.516;2023-11-19T07:20:47;67.65;;;43.08;;
57848;SDS011;68645;44.762;21.516;2023-11-19T07:23:13;44.00;;;23.92;;
57848;SDS011;68645;44.762;21.516;2023-11-19T07:25:43;26.33;;;16.25;;
57848;SDS011;68645;44.762;21.516;2023-11-19T07:28:12;39.55;;;24.05;;
57848;SDS011;68645;44.762;21.516;2023-11-19T07:30:39;41.70;;;23.67;;
57848;SDS011;68645;44.762;21.516;2023-11-19T07:33:05;20.70;;;12.90;;
57848;SDS011;68645;44.762;21.516;2023-11-19T07:35:31;37.72;;;23.02;;
57848;SDS011;68645;44.762;21.516;2023-11-19T07:37:58;28.45;;;18.13;;
57848;SDS011;68645;44.762;21.516;2023-11-19T07:40:24;32.67;;;20.92;;
57848;SDS011;68645;44.762;21.516;2023-11-19T07:42:50;18.33;;;11.18;;
57848;SDS011;68645;44.762;21.516;2023-11-19T07:45:17;16.73;;;11.50;;
57848;SDS011;68645;44.762;21.516;2023-11-19T07:47:43;29.30;;;17.83;;
57848;SDS011;68645;44.762;21.516;2023-11-19T07:50:12;36.65;;;23.02;;
57848;SDS011;68645;44.762;21.516;2023-11-19T07:52:41;26.05;;;15.40;;
57848;SDS011;68645;44.762;21.516;2023-11-19T07:55:08;38.10;;;20.70;;
57848;SDS011;68645;44.762;21.516;2023-11-19T07:57:34;24.95;;;16.63;;
57848;SDS011;68645;44.762;21.516;2023-11-19T08:00:00;22.02;;;16.27;;
57848;SDS011;68645;44.762;21.516;2023-11-19T08:02:27;73.68;;;39.05;;
57848;SDS011;68645;44.762;21.516;2023-11-19T08:04:53;39.13;;;26.83;;
57848;SDS011;68645;44.762;21.516;2023-11-19T08:07:20;30.23;;;22.27;;
57848;SDS011;68645;44.762;21.516;2023-11-19T08:09:47;28.13;;;21.08;;
57848;SDS011;68645;44.762;21.516;2023-11-19T08:12:13;24.58;;;19.17;;
57848;SDS011;68645;44.762;21.516;2023-11-19T08:14:40;19.60;;;12.73;;
57848;SDS011;68645;44.762;21.516;2023-11-19T08:17:07;36.97;;;22.67;;
57848;SDS011;68645;44.762;21.516;2023-11-19T08:19:33;26.13;;;18.63;;
57848;SDS011;68645;44.762;21.516;2023-11-19T08:21:59;21.98;;;16.73;;
57848;SDS011;68645;44.762;21.516;2023-11-19T08:24:25;25.15;;;19.92;;
57848;SDS011;68645;44.762;21.516;2023-11-19T08:26:51;18.38;;;13.85;;
57848;SDS011;68645;44.762;21.516;2023-11-19T08:29:17;17.30;;;14.38;;
57848;SDS011;68645;44.762;21.516;2023-11-19T08:31:43;21.08;;;16.27;;
57848;SDS011;68645;44.762;21.516;2023-11-19T08:34:11;23.67;;;18.10;;
57848;SDS011;68645;44.762;21.516;2023-11-19T08:36:37;18.42;;;13.15;;
57848;SDS011;68645;44.762;21.516;2023-11-19T08:39:03;22.85;;;16.55;;
57848;SDS011;68645;44.762;21.516;2023-11-19T08:41:29;15.23;;;11.27;;
57848;SDS011;68645;44.762;21.516;2023-11-19T08:43:55;25.05;;;19.58;;
57848;SDS011;68645;44.762;21.516;2023-11-19T08:46:21;27.05;;;19.33;;
57848;SDS011;68645;44.762;21.516;2023-11-19T08:48:47;27.15;;;23.73;;
57848;SDS011;68645;44.762;21.516;2023-11-19T08:51:13;28.95;;;25.95;;
57848;SDS011;68645;44.762;21.516;2023-11-19T08:53:40;24.48;;;19.92;;
57848;SDS011;68645;44.762;21.516;2023-11-19T08:56:06;20.27;;;15.88;;
57848;SDS011;68645;44.762;21.516;2023-11-19T08:58:32;20.38;;;15.95;;
57848;SDS011;68645;44.762;21.516;2023-11-19T09:00:59;21.30;;;17.25;;
57848;SDS011;68645;44.762;21.516;2023-11-19T09:03:25;26.73;;;22.88;;
57848;SDS011;68645;44.762;21.516;2023-11-19T09:05:52;36.10;;;26.50;;
57848;SDS011;68645;44.762;21.516;2023-11-19T09:08:18;36.63;;;24.33;;
57848;SDS011;68645;44.762;21.516;2023-11-19T09:10:44;29.27;;;20.50;;
57848;SDS011;68645;44.762;21.516;2023-11-19T09:13:10;60.00;;;44.75;;
57848;SDS011;68645;44.762;21.516;2023-11-19T09:15:36;26.35;;;19.35;;
57848;SDS011;68645;44.762;21.516;2023-11-19T09:18:02;29.70;;;22.85;;
57848;SDS011;68645;44.762;21.516;2023-11-19T09:20:29;39.95;;;28.05;;
57848;SDS011;68645;44.762;21.516;2023-11-19T09:23:02;35.55;;;23.95;;
57848;SDS011;68645;44.762;21.516;2023-11-19T09:25:29;17.05;;;12.02;;
57848;SDS011;68645;44.762;21.516;2023-11-19T09:27:55;58.28;;;34.03;;
57848;SDS011;68645;44.762;21.516;2023-11-19T09:30:21;34.67;;;26.13;;
57848;SDS011;68645;44.762;21.516;2023-11-19T09:32:47;39.75;;;21.15;;
57848;SDS011;68645;44.762;21.516;2023-11-19T09:35:14;22.05;;;17.52;;
57848;SDS011;68645;44.762;21.516;2023-11-19T09:37:41;33.75;;;24.38;;
57848;SDS011;68645;44.762;21.516;2023-11-19T09:40:07;15.63;;;12.27;;
57848;SDS011;68645;44.762;21.516;2023-11-19T09:42:43;15.90;;;11.60;;
57848;SDS011;68645;44.762;21.516;2023-11-19T09:45:13;16.27;;;13.65;;
57848;SDS011;68645;44.762;21.516;2023-11-19T09:47:42;105.53;;;71.75;;
57848;SDS011;68645;44.762;21.516;2023-11-19T09:50:10;48.30;;;32.88;;
57848;SDS011;68645;44.762;21.516;2023-11-19T09:52:36;22.15;;;16.30;;
57848;SDS011;68645;44.762;21.516;2023-11-19T09:55:02;39.95;;;33.70;;
57848;SDS011;68645;44.762;21.516;2023-11-19T09:57:29;23.63;;;19.25;;
57848;SDS011;68645;44.762;21.516;2023-11-19T09:59:58;25.33;;;16.40;;
57848;SDS011;68645;44.762;21.516;2023-11-19T10:02:24;22.42;;;18.40;;
57848;SDS011;68645;44.762;21.516;2023-11-19T10:04:52;18.70;;;14.02;;
57848;SDS011;68645;44.762;21.516;2023-11-19T10:07:20;31.90;;;22.25;;
57848;SDS011;68645;44.762;21.516;2023-11-19T10:09:46;40.47;;;28.15;;
57848;SDS011;68645;44.762;21.516;2023-11-19T10:12:12;31.63;;;23.10;;
57848;SDS011;68645;44.762;21.516;2023-11-19T10:14:39;31.45;;;20.58;;
57848;SDS011;68645;44.762;21.516;2023-11-19T10:17:07;19.27;;;15.13;;
57848;SDS011;68645;44.762;21.516;2023-11-19T10:19:34;38.65;;;24.27;;
57848;SDS011;68645;44.762;21.516;2023-11-19T10:22:06;20.85;;;13.75;;
57848;SDS011;68645;44.762;21.516;2023-11-19T10:24:33;30.55;;;20.35;;
57848;SDS011;68645;44.762;21.516;2023-11-19T10:27:02;13.82;;;10.77;;
57848;SDS011;68645;44.762;21.516;2023-11-19T10:29:31;25.30;;;20.73;;
57848;SDS011;68645;44.762;21.516;2023-11-19T10:31:58;53.75;;;28.13;;
57848;SDS011;68645;44.762;21.516;2023-11-19T10:34:24;63.83;;;46.53;;
57848;SDS011;68645;44.762;21.516;2023-11-19T10:36:51;50.33;;;33.78;;
57848;SDS011;68645;44.762;21.516;2023-11-19T10:39:17;36.63;;;26.25;;
57848;SDS011;68645;44.762;21.516;2023-11-19T10:41:44;15.20;;;13.00;;
57848;SDS011;68645;44.762;21.516;2023-11-19T10:44:10;16.92;;;12.52;;
57848;SDS011;68645;44.762;21.516;2023-11-19T10:46:40;52.58;;;42.97;;
57848;SDS011;68645;44.762;21.516;2023-11-19T10:49:06;12.27;;;9.07;;
57848;SDS011;68645;44.762;21.516;2023-11-19T10:51:33;18.92;;;15.05;;
57848;SDS011;68645;44.762;21.516;2023-11-19T10:54:03;21.95;;;14.68;;
57848;SDS011;68645;44.762;21.516;2023-11-19T10:56:33;15.65;;;12.35;;
57848;SDS011;68645;44.762;21.516;2023-11-19T10:59:00;17.00;;;14.52;;
57848;SDS011;68645;44.762;21.516;2023-11-19T11:01:32;14.40;;;9.50;;
57848;SDS011;68645;44.762;21.516;2023-11-19T11:04:00;16.05;;;12.27;;
57848;SDS011;68645;44.762;21.516;2023-11-19T11:06:27;16.88;;;12.07;;
57848;SDS011;68645;44.762;21.516;2023-11-19T11:08:54;19.65;;;16.25;;
57848;SDS011;68645;44.762;21.516;2023-11-19T11:11:20;34.17;;;21.38;;
57848;SDS011;68645;44.762;21.516;2023-11-19T11:13:48;18.27;;;13.80;;
57848;SDS011;68645;44.762;21.516;2023-11-19T11:16:18;9.32;;;7.78;;
57848;SDS011;68645;44.762;21.516;2023-11-19T11:18:47;13.95;;;10.35;;
57848;SDS011;68645;44.762;21.516;2023-11-19T11:21:15;23.05;;;16.95;;
57848;SDS011;68645;44.762;21.516;2023-11-19T11:26:35;23.80;;;17.63;;
57848;SDS011;68645;44.762;21.516;2023-11-19T11:39:39;16.58;;;12.57;;
57848;SDS011;68645;44.762;21.516;2023-11-19T11:45:03;26.17;;;18.95;;
57848;SDS011;68645;44.762;21.516;2023-11-19T11:50:11;35.63;;;26.00;;
57848;SDS011;68645;44.762;21.516;2023-11-19T11:55:25;17.95;;;15.57;;
57848;SDS011;68645;44.762;21.516;2023-11-19T11:57:51;18.63;;;14.98;;
57848;SDS011;68645;44.762;21.516;2023-11-19T12:02:56;22.90;;;16.10;;
57848;SDS011;68645;44.762;21.516;2023-11-19T12:05:23;56.20;;;39.63;;
57848;SDS011;68645;44.762;21.516;2023-11-19T12:08:02;34.72;;;22.02;;
57848;SDS011;68645;44.762;21.516;2023-11-19T12:10:29;41.05;;;27.30;;
57848;SDS011;68645;44.762;21.516;2023-11-19T12:12:59;53.25;;;36.33;;
57848;SDS011;68645;44.762;21.516;2023-11-19T12:15:25;24.60;;;18.00;;
57848;SDS011;68645;44.762;21.516;2023-11-19T12:17:53;29.33;;;21.40;;
57848;SDS011;68645;44.762;21.516;2023-11-19T12:20:21;22.67;;;15.65;;
57848;SDS011;68645;44.762;21.516;2023-11-19T12:22:47;28.27;;;19.67;;
57848;SDS011;68645;44.762;21.516;2023-11-19T12:25:14;29.90;;;21.58;;
57848;SDS011;68645;44.762;21.516;2023-11-19T12:27:50;19.40;;;15.27;;
57848;SDS011;68645;44.762;21.516;2023-11-19T12:30:23;40.00;;;25.20;;
57848;SDS011;68645;44.762;21.516;2023-11-19T12:32:50;56.42;;;31.90;;
57848;SDS011;68645;44.762;21.516;2023-11-19T12:35:16;33.03;;;20.38;;
57848;SDS011;68645;44.762;21.516;2023-11-19T12:37:51;94.72;;;44.58;;
57848;SDS011;68645;44.762;21.516;2023-11-19T12:40:21;45.88;;;25.92;;
57848;SDS011;68645;44.762;21.516;2023-11-19T12:42:48;49.05;;;33.40;;
57848;SDS011;68645;44.762;21.516;2023-11-19T12:45:16;27.55;;;18.95;;
57848;SDS011;68645;44.762;21.516;2023-11-19T12:47:43;34.35;;;21.75;;
57848;SDS011;68645;44.762;21.516;2023-11-19T12:50:09;40.30;;;27.08;;
57848;SDS011;68645;44.762;21.516;2023-11-19T12:52:36;27.88;;;17.05;;
57848;SDS011;68645;44.762;21.516;2023-11-19T12:55:05;32.80;;;18.95;;
57848;SDS011;68645;44.762;21.516;2023-11-19T12:57:49;48.78;;;25.65;;
57848;SDS011;68645;44.762;21.516;2023-11-19T13:00:19;30.98;;;21.98;;
57848;SDS011;68645;44.762;21.516;2023-11-19T13:02:49;24.25;;;17.33;;
57848;SDS011;68645;44.762;21.516;2023-11-19T13:05:31;19.77;;;14.40;;
57848;SDS011;68645;44.762;21.516;2023-11-19T13:08:05;20.00;;;15.90;;
57848;SDS011;68645;44.762;21.516;2023-11-19T13:11:13;17.30;;;12.73;;
57848;SDS011;68645;44.762;21.516;2023-11-19T13:13:20;41.38;;;29.77;;
57848;SDS011;68645;44.762;21.516;2023-11-19T13:15:47;28.88;;;20.77;;
57848;SDS011;68645;44.762;21.516;2023-11-19T13:18:15;18.63;;;12.63;;
57848;SDS011;68645;44.762;21.516;2023-11-19T13:20:42;23.17;;;15.60;;
57848;SDS011;68645;44.762;21.516;2023-11-19T13:23:08;25.52;;;16.92;;
57848;SDS011;68645;44.762;21.516;2023-11-19T13:25:35;26.75;;;18.05;;
57848;SDS011;68645;44.762;21.516;2023-11-19T13:28:01;28.85;;;18.63;;
57848;SDS011;68645;44.762;21.516;2023-11-19T13:30:28;59.70;;;36.33;;
57848;SDS011;68645;44.762;21.516;2023-11-19T13:32:57;47.22;;;28.45;;
57848;SDS011;68645;44.762;21.516;2023-11-19T13:35:23;31.25;;;20.83;;
57848;SDS011;68645;44.762;21.516;2023-11-19T13:37:50;22.38;;;15.85;;
57848;SDS011;68645;44.762;21.516;2023-11-19T13:40:16;14.93;;;11.02;;
57848;SDS011;68645;44.762;21.516;2023-11-19T13:42:44;15.75;;;10.80;;
57848;SDS011;68645;44.762;21.516;2023-11-19T13:45:13;15.70;;;12.50;;
57848;SDS011;68645;44.762;21.516;2023-11-19T13:47:41;23.10;;;16.92;;
57848;SDS011;68645;44.762;21.516;2023-11-19T13:50:08;37.78;;;25.08;;
57848;SDS011;68645;44.762;21.516;2023-11-19T13:52:34;29.83;;;18.45;;
57848;SDS011;68645;44.762;21.516;2023-11-19T13:55:03;25.80;;;17.45;;
57848;SDS011;68645;44.762;21.516;2023-11-19T13:57:30;34.50;;;21.55;;
57848;SDS011;68645;44.762;21.516;2023-11-19T13:59:56;42.42;;;23.75;;
57848;SDS011;68645;44.762;21.516;2023-11-19T14:02:22;44.20;;;26.92;;
57848;SDS011;68645;44.762;21.516;2023-11-19T14:04:49;41.97;;;25.80;;
57848;SDS011;68645;44.762;21.516;2023-11-19T14:07:15;34.67;;;27.45;;
57848;SDS011;68645;44.762;21.516;2023-11-19T14:09:44;63.88;;;43.78;;
57848;SDS011;68645;44.762;21.516;2023-11-19T14:12:10;53.67;;;38.33;;
57848;SDS011;68645;44.762;21.516;2023-11-19T14:14:38;44.53;;;29.73;;
57848;SDS011;68645;44.762;21.516;2023-11-19T14:17:04;28.63;;;21.77;;
57848;SDS011;68645;44.762;21.516;2023-11-19T14:19:31;31.88;;;21.33;;
57848;SDS011;68645;44.762;21.516;2023-11-19T14:21:57;61.42;;;36.95;;
57848;SDS011;68645;44.762;21.516;2023-11-19T14:24:24;44.80;;;27.40;;
57848;SDS011;68645;44.762;21.516;2023-11-19T14:26:51;53.35;;;27.75;;
57848;SDS011;68645;44.762;21.516;2023-11-19T14:29:17;54.40;;;32.17;;
57848;SDS011;68645;44.762;21.516;2023-11-19T14:31:43;28.85;;;19.95;;
57848;SDS011;68645;44.762;21.516;2023-11-19T14:34:09;22.33;;;17.50;;